Destinations Pisa International Airport

Pisa International Airport (LIRP / PSA)

Flights to Pisa International Airport

Flight number From ETE Dispatch
SPY-4126 LIRN Naples International Airport 01:25

Flights from Pisa International Airport

Flight number To ETE Dispatch
SPY-4127 LIRN Naples International Airport 01:20
About

Pisa International Airport facts

Pisa International Airport is located in Pisa at an elevation of 1.8 meters or 6 feet.

Currently, Speedy Airlines serves 2 flights to and from Pisa International Airport.

Detailed airport info

Route map

Weather

Current weather

METAR

METAR

Metar data retrieved Sunday, 21 July 2024 at 18:25 UTC

LIRP 211745Z 24008KT CAVOK 30/24 Q1008 NOSIG
Wind Temperature
8 kt 30c